Archival Weather

Al Kharj

Al Kharj, Saudi Arabia (OEKJ)

Report from: Thursday, February 22, 2024 9:00 AM UTC
Current time: Wednesday, April 24, 2024 6:19 PM UTC

Current weather – Weather history – Daily summaries
Weather forecast

Temperature23.0°C (73.4°F)
Dew point1.0°C (33.8°F)
Winds 9 kts (4.6 m/s, 10.4 mph) East-Southeast (110°)
Clouds Sky clear
Altimeter30.21 in.Hg (1023 mB)
Relative humidity23 %
Density altitude707 ft. (215 m)
Remarks Ceiling and visibility OK
Flight conditions Visual Meteorological Conditions
Raw dataOEKJ 220900Z 11009KT CAVOK 23/01 Q1023
An error has occurred. This application may no longer respond until reloaded. Reload 🗙